createdAt,value
2022-08-25T00:01:40.169Z,3.55
2022-08-25T00:04:10.856Z,3.60
2022-08-25T00:06:39.594Z,3.35
2022-08-25T00:09:07.330Z,3.90
2022-08-25T00:11:36.114Z,3.67
2022-08-25T00:14:08.541Z,3.80
2022-08-25T00:16:35.110Z,3.72
2022-08-25T00:19:06.243Z,3.40
2022-08-25T00:21:33.535Z,3.70
2022-08-25T00:24:02.332Z,3.42
2022-08-25T00:26:29.606Z,3.50
2022-08-25T00:29:01.795Z,3.60
2022-08-25T00:31:38.128Z,3.35
2022-08-25T00:34:08.322Z,3.50
2022-08-25T00:36:35.221Z,3.55
2022-08-25T00:39:01.806Z,3.50
2022-08-25T00:41:28.363Z,3.67
2022-08-25T00:43:59.040Z,3.67
2022-08-25T00:46:35.089Z,3.58
2022-08-25T00:49:05.951Z,3.50
2022-08-25T00:51:42.761Z,3.40
2022-08-25T00:54:17.559Z,3.25
2022-08-25T00:56:45.712Z,3.72
2022-08-25T00:59:13.701Z,3.03
2022-08-25T01:01:40.338Z,3.60
2022-08-25T01:04:07.567Z,3.47
2022-08-25T01:06:38.929Z,3.90
2022-08-25T01:09:07.211Z,3.33
2022-08-25T01:11:34.935Z,3.47
2022-08-25T01:14:06.325Z,3.58
2022-08-25T01:16:38.455Z,3.67
2022-08-25T01:19:07.236Z,3.45
2022-08-25T01:21:45.943Z,3.60
2022-08-25T01:24:21.296Z,3.88
2022-08-25T01:26:47.771Z,3.25
2022-08-25T01:29:25.258Z,3.10
2022-08-25T01:32:01.172Z,3.20
2022-08-25T01:34:30.684Z,3.33
2022-08-25T01:36:59.076Z,3.40
2022-08-25T01:39:27.623Z,3.40
2022-08-25T01:41:59.946Z,3.45
2022-08-25T01:44:26.430Z,3.40
2022-08-25T01:46:54.507Z,3.92
2022-08-25T01:49:22.038Z,3.33
2022-08-25T01:51:55.611Z,3.40
2022-08-25T01:54:22.247Z,3.00
2022-08-25T01:56:48.708Z,3.00
2022-08-25T01:59:21.658Z,3.15
2022-08-25T02:01:50.700Z,3.55
2022-08-25T02:04:17.218Z,3.10
2022-08-25T02:06:48.249Z,3.05
2022-08-25T02:11:44.943Z,3.72
2022-08-25T02:14:13.800Z,3.30
2022-08-25T02:16:44.637Z,3.30
2022-08-25T02:19:12.171Z,2.95
2022-08-25T02:21:39.398Z,3.50
2022-08-25T02:24:06.939Z,3.00
2022-08-25T02:26:36.102Z,3.20
2022-08-25T02:29:04.072Z,3.10
2022-08-25T02:31:30.604Z,3.20
2022-08-25T02:33:57.199Z,2.88
2022-08-25T02:36:24.048Z,2.90
2022-08-25T02:38:50.564Z,3.13
2022-08-25T02:41:21.316Z,3.10
2022-08-25T02:43:48.743Z,2.90
2022-08-25T02:46:17.334Z,3.03
2022-08-25T02:48:44.497Z,3.35
2022-08-25T02:51:12.268Z,3.20
2022-08-25T02:53:40.399Z,2.90
2022-08-25T02:56:09.646Z,2.80
2022-08-25T02:58:37.488Z,2.80
2022-08-25T03:01:04.859Z,3.30
2022-08-25T03:03:32.340Z,2.95
2022-08-25T03:06:00.703Z,2.90
2022-08-25T03:10:53.727Z,2.97
2022-08-25T03:15:46.516Z,3.30
2022-08-25T03:18:15.916Z,2.92
2022-08-25T03:20:44.420Z,2.97
2022-08-25T03:23:10.980Z,3.50
2022-08-25T03:25:58.302Z,3.10
2022-08-25T03:28:29.819Z,2.95
2022-08-25T03:30:57.031Z,3.28
2022-08-25T03:33:23.462Z,3.30
2022-08-25T03:38:16.872Z,3.58
2022-08-25T03:40:43.310Z,3.38
2022-08-25T03:45:43.716Z,3.17
2022-08-25T03:48:10.628Z,2.95
2022-08-25T03:50:43.394Z,3.25
2022-08-25T03:53:17.731Z,3.25
2022-08-25T03:55:44.186Z,3.13
2022-08-25T04:00:37.666Z,3.22
2022-08-25T04:03:04.226Z,3.13
2022-08-25T04:05:30.823Z,3.20
2022-08-25T04:08:01.508Z,3.35
2022-08-25T04:10:28.263Z,2.95
2022-08-25T04:12:55.932Z,3.30
2022-08-25T04:15:22.567Z,3.40
2022-08-25T04:17:51.817Z,3.47
2022-08-25T04:20:18.810Z,3.60
2022-08-25T04:22:45.628Z,3.53
2022-08-25T04:25:12.666Z,3.50
2022-08-25T04:27:39.648Z,3.63
2022-08-25T04:30:06.975Z,3.58
2022-08-25T04:32:36.163Z,3.28
2022-08-25T04:35:04.200Z,3.10
2022-08-25T04:37:30.688Z,3.50
2022-08-25T04:42:23.676Z,3.22
2022-08-25T04:47:16.534Z,3.45
2022-08-25T04:52:14.547Z,3.30
2022-08-25T04:54:41.992Z,3.70
2022-08-25T04:57:08.520Z,3.78
2022-08-25T04:59:35.094Z,3.05
2022-08-25T05:02:05.357Z,3.50
2022-08-25T05:04:34.281Z,3.33
2022-08-25T05:07:01.265Z,3.22
2022-08-25T05:09:28.308Z,3.42
2022-08-25T05:11:55.254Z,3.40
2022-08-25T05:14:26.499Z,3.15
2022-08-25T05:16:56.395Z,3.60
2022-08-25T05:19:24.061Z,3.60
2022-08-25T05:21:51.061Z,3.30
2022-08-25T05:24:18.374Z,3.40
2022-08-25T05:26:44.966Z,3.47
2022-08-25T05:29:11.633Z,3.75
2022-08-25T05:31:42.417Z,3.50
2022-08-25T05:34:12.045Z,3.38
2022-08-25T05:36:42.998Z,3.63
2022-08-25T05:39:10.470Z,3.60
2022-08-25T05:41:37.693Z,4.45
2022-08-25T05:44:04.315Z,3.15
2022-08-25T05:46:31.770Z,3.35
2022-08-25T05:48:58.847Z,3.63
2022-08-25T05:51:26.208Z,3.05
2022-08-25T05:53:52.844Z,3.45
2022-08-25T05:56:19.768Z,3.00
2022-08-25T05:58:46.800Z,3.28
2022-08-25T06:01:45.175Z,3.22
2022-08-25T06:04:13.027Z,3.05
2022-08-25T06:06:40.007Z,3.45
2022-08-25T06:09:08.655Z,3.33
2022-08-25T06:11:36.340Z,3.50
2022-08-25T06:14:03.082Z,3.13
2022-08-25T06:16:29.591Z,3.00
2022-08-25T06:18:56.224Z,2.95
2022-08-25T06:21:22.745Z,2.90
2022-08-25T06:23:49.312Z,2.90
2022-08-25T06:26:21.049Z,2.92
2022-08-25T06:28:49.339Z,2.88
2022-08-25T06:31:15.910Z,2.60
2022-08-25T06:33:43.018Z,2.60
2022-08-25T06:36:09.824Z,2.83
2022-08-25T06:38:36.288Z,2.83
2022-08-25T06:41:07.132Z,3.00
2022-08-25T06:43:34.408Z,2.70
2022-08-25T06:46:15.038Z,2.60
2022-08-25T06:48:42.592Z,3.20
2022-08-25T06:51:13.970Z,2.95
2022-08-25T06:53:45.686Z,3.20
2022-08-25T06:56:19.289Z,2.55
2022-08-25T06:58:46.921Z,2.70
2022-08-25T07:01:23.513Z,2.67
2022-08-25T07:03:57.233Z,2.67
2022-08-25T07:06:24.887Z,2.88
2022-08-25T07:08:51.328Z,2.55
2022-08-25T07:11:18.499Z,2.67
2022-08-25T07:13:45.498Z,2.55
2022-08-25T07:16:12.744Z,2.75
2022-08-25T07:18:39.280Z,2.47
2022-08-25T07:21:08.946Z,2.88
2022-08-25T07:23:36.505Z,2.53
2022-08-25T07:26:15.879Z,2.50
2022-08-25T07:28:53.596Z,2.30
2022-08-25T07:31:21.555Z,2.58
2022-08-25T07:34:14.370Z,2.40
2022-08-25T07:36:42.962Z,2.38
2022-08-25T07:39:09.395Z,2.80
2022-08-25T07:41:41.559Z,3.00
2022-08-25T07:44:10.457Z,3.05
2022-08-25T07:46:37.083Z,3.17
2022-08-25T07:49:05.293Z,2.90
2022-08-25T07:52:03.261Z,2.90
2022-08-25T07:54:34.137Z,3.10
2022-08-25T07:57:01.643Z,3.55
2022-08-25T07:59:28.142Z,3.03
2022-08-25T08:01:54.811Z,3.40
2022-08-25T08:04:22.221Z,3.20
2022-08-25T08:06:48.711Z,3.10
2022-08-25T08:09:16.123Z,3.38
2022-08-25T08:11:53.990Z,3.28
2022-08-25T08:14:21.044Z,3.38
2022-08-25T08:16:47.678Z,3.25
2022-08-25T08:19:14.211Z,3.30
2022-08-25T08:21:41.556Z,3.20
2022-08-25T08:24:24.765Z,3.10
2022-08-25T08:26:58.931Z,3.47
2022-08-25T08:29:26.786Z,3.78
2022-08-25T08:31:53.369Z,4.25
2022-08-25T08:34:19.998Z,3.63
2022-08-25T08:36:51.340Z,4.28
2022-08-25T08:39:17.804Z,4.35
2022-08-25T08:42:18.253Z,3.83
2022-08-25T08:44:44.642Z,4.00
2022-08-25T08:47:20.363Z,3.65
2022-08-25T08:50:26.006Z,3.70
2022-08-25T08:53:09.324Z,3.88
2022-08-25T08:55:41.450Z,3.75
2022-08-25T08:58:14.310Z,3.75
2022-08-25T09:00:52.010Z,2.90
2022-08-25T09:03:54.990Z,3.03
2022-08-25T09:06:34.024Z,2.85
2022-08-25T09:09:06.886Z,3.10
2022-08-25T09:11:39.695Z,3.38
2022-08-25T09:14:30.496Z,3.30
2022-08-25T09:17:06.386Z,3.00
2022-08-25T09:19:41.995Z,3.33
2022-08-25T09:22:35.273Z,2.85
2022-08-25T09:25:48.764Z,3.13
2022-08-25T09:28:26.695Z,3.00
2022-08-25T09:31:12.638Z,2.97
2022-08-25T09:33:39.243Z,2.90
2022-08-25T09:36:08.721Z,3.20
2022-08-25T09:38:35.566Z,2.80
2022-08-25T09:41:03.098Z,2.72
2022-08-25T09:43:31.966Z,2.75
2022-08-25T09:46:23.170Z,2.92
2022-08-25T09:48:59.371Z,3.40
2022-08-25T09:51:42.754Z,2.90
2022-08-25T09:54:12.927Z,2.72
2022-08-25T09:56:55.690Z,2.83
2022-08-25T09:59:34.930Z,2.90
2022-08-25T10:02:20.564Z,2.75
2022-08-25T10:04:47.395Z,2.60
2022-08-25T10:07:30.156Z,2.50
2022-08-25T10:10:02.159Z,2.70
2022-08-25T10:12:44.302Z,3.00
2022-08-25T10:15:29.449Z,2.67
2022-08-25T10:17:57.538Z,2.42
2022-08-25T10:20:33.089Z,2.70
2022-08-25T10:23:14.346Z,2.50
2022-08-25T10:25:58.036Z,2.50
2022-08-25T10:28:54.519Z,2.65
2022-08-25T10:31:28.294Z,2.08
2022-08-25T10:34:02.317Z,2.33
2022-08-25T10:36:57.432Z,2.40
2022-08-25T10:39:55.363Z,2.55
2022-08-25T10:42:38.707Z,2.33
2022-08-25T10:45:44.263Z,2.25
2022-08-25T10:48:22.801Z,2.13
2022-08-25T10:51:20.526Z,2.13
2022-08-25T10:54:27.925Z,2.10
2022-08-25T10:57:09.755Z,1.88
2022-08-25T10:59:49.512Z,2.22
2022-08-25T11:02:49.524Z,2.28
2022-08-25T11:05:24.698Z,2.03
2022-08-25T11:07:58.432Z,1.92
2022-08-25T11:10:40.621Z,2.00
2022-08-25T11:13:17.022Z,2.00
2022-08-25T11:16:19.583Z,1.90
2022-08-25T11:19:14.253Z,1.90
2022-08-25T11:21:53.984Z,2.00
2022-08-25T11:24:32.262Z,1.73
2022-08-25T11:27:05.506Z,1.83
2022-08-25T11:29:36.692Z,1.88
2022-08-25T11:32:04.580Z,2.13
2022-08-25T11:34:33.462Z,2.00
2022-08-25T11:37:11.092Z,1.80
2022-08-25T11:40:03.389Z,2.17
2022-08-25T11:42:59.077Z,2.30
2022-08-25T11:45:54.363Z,2.07
2022-08-25T11:48:29.935Z,1.70
2022-08-25T11:51:31.353Z,1.93
2022-08-25T11:54:21.808Z,2.30
2022-08-25T11:57:07.184Z,1.80
2022-08-25T11:59:52.051Z,1.85
2022-08-25T12:02:42.612Z,2.25
2022-08-25T12:05:34.910Z,1.77
2022-08-25T12:08:24.004Z,1.95
2022-08-25T12:11:01.287Z,2.00
2022-08-25T12:13:44.411Z,1.70
2022-08-25T12:16:35.758Z,1.85
2022-08-25T12:19:25.942Z,1.63
2022-08-25T12:21:54.715Z,1.70
2022-08-25T12:24:47.574Z,1.80
2022-08-25T12:27:33.603Z,1.60
2022-08-25T12:30:39.080Z,1.70
2022-08-25T12:33:15.079Z,1.60
2022-08-25T12:36:00.292Z,1.70
2022-08-25T12:38:32.504Z,1.75
2022-08-25T12:41:24.247Z,1.52
2022-08-25T12:43:54.352Z,1.55
2022-08-25T12:46:25.677Z,1.70
2022-08-25T12:49:04.634Z,2.22
2022-08-25T12:51:49.408Z,1.75
2022-08-25T12:54:47.739Z,1.60
2022-08-25T12:57:43.706Z,1.50
2022-08-25T13:00:18.398Z,1.80
2022-08-25T13:03:03.815Z,1.90
2022-08-25T13:05:44.597Z,1.70
2022-08-25T13:08:27.783Z,1.90
2022-08-25T13:11:15.560Z,1.70
2022-08-25T13:14:12.594Z,1.88
2022-08-25T13:16:39.694Z,1.90
2022-08-25T13:19:07.009Z,1.98
2022-08-25T13:21:40.367Z,1.90
2022-08-25T13:24:14.482Z,1.80
2022-08-25T13:26:48.326Z,1.90
2022-08-25T13:29:34.068Z,1.95
2022-08-25T13:32:13.010Z,2.17
2022-08-25T13:34:42.983Z,2.20
2022-08-25T13:37:32.230Z,1.88
2022-08-25T13:40:27.814Z,1.83
2022-08-25T13:43:07.719Z,2.13
2022-08-25T13:45:41.505Z,1.92
2022-08-25T13:48:23.048Z,2.05
2022-08-25T13:50:53.132Z,2.50
2022-08-25T13:53:25.321Z,1.90
2022-08-25T13:55:58.651Z,2.00
2022-08-25T13:58:39.305Z,2.00
2022-08-25T14:04:29.479Z,1.90
2022-08-25T14:07:19.514Z,2.15
2022-08-25T14:09:58.891Z,2.17
2022-08-25T14:12:35.300Z,2.03
2022-08-25T14:15:04.014Z,1.88
2022-08-25T14:17:38.687Z,2.10
2022-08-25T14:20:17.254Z,2.08
2022-08-25T14:22:43.870Z,1.98
2022-08-25T14:25:11.194Z,2.05
2022-08-25T14:27:56.897Z,1.95
2022-08-25T14:30:30.127Z,1.70
2022-08-25T14:32:56.994Z,2.15
2022-08-25T14:35:23.497Z,2.13
2022-08-25T14:37:50.275Z,2.15
2022-08-25T14:40:19.793Z,2.10
2022-08-25T14:42:47.525Z,1.90
2022-08-25T14:45:18.225Z,2.38
2022-08-25T14:47:49.831Z,2.13
2022-08-25T14:50:20.888Z,2.00
2022-08-25T14:52:48.193Z,2.10
2022-08-25T14:55:31.216Z,1.80
2022-08-25T14:57:59.139Z,1.88
2022-08-25T15:00:25.977Z,2.13
2022-08-25T15:02:53.095Z,2.00
2022-08-25T15:05:28.279Z,2.20
2022-08-25T15:08:14.011Z,2.15
2022-08-25T15:10:41.885Z,2.13
2022-08-25T15:13:10.699Z,2.00
2022-08-25T15:15:52.095Z,1.80
2022-08-25T15:18:20.354Z,2.08
2022-08-25T15:20:46.906Z,2.03
2022-08-25T15:23:19.400Z,2.25
2022-08-25T15:25:48.299Z,2.35
2022-08-25T15:28:17.386Z,2.00
2022-08-25T15:30:45.721Z,2.00
2022-08-25T15:33:13.369Z,1.90
2022-08-25T15:35:40.945Z,1.88
2022-08-25T15:38:08.373Z,1.98
2022-08-25T15:40:37.394Z,1.90
2022-08-25T15:43:03.958Z,1.77
2022-08-25T15:45:31.019Z,1.70
2022-08-25T15:47:57.828Z,1.80
2022-08-25T15:50:26.752Z,1.70
2022-08-25T15:52:53.766Z,2.10
2022-08-25T15:55:20.899Z,1.77
2022-08-25T15:57:49.618Z,1.80
2022-08-25T16:00:18.357Z,1.80
2022-08-25T16:02:45.522Z,1.60
2022-08-25T16:05:13.664Z,1.70
2022-08-25T16:07:42.672Z,1.80
2022-08-25T16:10:09.952Z,1.55
2022-08-25T16:12:37.496Z,1.75
2022-08-25T16:15:04.320Z,1.60
2022-08-25T16:17:30.798Z,1.48
2022-08-25T16:19:57.273Z,1.50
2022-08-25T16:22:23.901Z,1.50
2022-08-25T16:24:52.712Z,1.58
2022-08-25T16:27:19.857Z,1.50
2022-08-25T16:29:47.175Z,1.65
2022-08-25T16:32:14.692Z,1.45
2022-08-25T16:34:44.383Z,1.20
2022-08-25T16:37:11.152Z,1.20
2022-08-25T16:39:40.042Z,1.20
2022-08-25T16:42:07.872Z,1.23
2022-08-25T16:44:34.436Z,1.10
2022-08-25T16:47:01.353Z,1.38
2022-08-25T16:49:27.978Z,1.10
2022-08-25T16:51:57.008Z,1.40
2022-08-25T16:54:43.249Z,1.25
2022-08-25T16:57:09.663Z,1.10
2022-08-25T16:59:36.244Z,1.50
2022-08-25T17:02:03.909Z,1.30
2022-08-25T17:04:32.430Z,1.27
2022-08-25T17:06:59.713Z,1.40
2022-08-25T17:09:26.168Z,1.40
2022-08-25T17:11:56.582Z,1.40
2022-08-25T17:14:23.215Z,1.50
2022-08-25T17:16:54.471Z,1.60
2022-08-25T17:19:21.214Z,1.67
2022-08-25T17:21:50.969Z,1.60
2022-08-25T17:24:17.803Z,1.50
2022-08-25T17:26:47.126Z,1.60
2022-08-25T17:29:13.683Z,1.50
2022-08-25T17:31:40.586Z,1.58
2022-08-25T17:34:10.481Z,1.70
2022-08-25T17:36:38.401Z,1.73
2022-08-25T17:39:09.452Z,1.50
2022-08-25T17:41:37.600Z,1.70
2022-08-25T17:44:05.316Z,1.63
2022-08-25T17:46:32.261Z,1.80
2022-08-25T17:48:58.823Z,1.65
2022-08-25T17:51:25.589Z,1.77
2022-08-25T17:53:52.740Z,1.67
2022-08-25T17:56:22.069Z,2.00
2022-08-25T17:58:49.505Z,1.73
2022-08-25T18:01:19.780Z,1.70
2022-08-25T18:03:49.067Z,1.63
2022-08-25T18:06:16.675Z,2.10
2022-08-25T18:08:51.276Z,2.28
2022-08-25T18:11:20.826Z,2.00
2022-08-25T18:13:47.366Z,1.98
2022-08-25T18:16:17.066Z,2.10
2022-08-25T18:18:44.350Z,2.10
2022-08-25T18:21:15.410Z,2.10
2022-08-25T18:23:42.827Z,2.05
2022-08-25T18:26:12.844Z,2.10
2022-08-25T18:28:43.769Z,2.00
2022-08-25T18:31:13.215Z,1.92
2022-08-25T18:33:44.711Z,1.90
2022-08-25T18:36:12.866Z,2.03
2022-08-25T18:38:59.047Z,1.90
2022-08-25T18:41:27.183Z,2.27
2022-08-25T18:43:54.262Z,2.40
2022-08-25T18:46:22.687Z,2.35
2022-08-25T18:48:52.909Z,2.42
2022-08-25T18:51:23.228Z,2.47
2022-08-25T18:53:51.254Z,2.10
2022-08-25T18:56:22.345Z,2.00
2022-08-25T18:58:48.814Z,2.17
2022-08-25T19:01:16.594Z,2.20
2022-08-25T19:03:43.336Z,2.20
2022-08-25T19:06:10.957Z,2.30
2022-08-25T19:08:39.441Z,2.22
2022-08-25T19:11:09.600Z,2.63
2022-08-25T19:13:36.188Z,2.25
2022-08-25T19:16:14.049Z,2.30
2022-08-25T19:18:45.336Z,2.13
2022-08-25T19:21:11.871Z,2.10
2022-08-25T19:23:38.974Z,2.20
2022-08-25T19:26:16.921Z,2.10
2022-08-25T19:28:49.053Z,2.20
2022-08-25T19:31:26.337Z,2.35
2022-08-25T19:33:55.082Z,1.95
2022-08-25T19:36:28.077Z,2.55
2022-08-25T19:38:58.164Z,2.38
2022-08-25T19:41:27.320Z,2.20
2022-08-25T19:43:56.103Z,2.38
2022-08-25T19:46:25.782Z,2.20
2022-08-25T19:51:35.511Z,2.10
2022-08-25T19:54:01.987Z,2.50
2022-08-25T19:56:29.919Z,2.10
2022-08-25T19:58:57.394Z,2.25
2022-08-25T20:01:24.347Z,2.30
2022-08-25T20:03:52.020Z,2.08
2022-08-25T20:06:18.666Z,2.28
2022-08-25T20:08:45.149Z,2.30
2022-08-25T20:11:11.682Z,2.10
2022-08-25T20:13:38.134Z,2.33
2022-08-25T20:16:05.441Z,2.25
2022-08-25T20:18:32.437Z,2.10
2022-08-25T20:20:59.284Z,2.15
2022-08-25T20:23:44.612Z,2.50
2022-08-25T20:26:11.196Z,2.10
2022-08-25T20:28:37.731Z,2.80
2022-08-25T20:31:04.282Z,2.40
2022-08-25T20:33:33.023Z,2.30
2022-08-25T20:35:59.605Z,2.13
2022-08-25T20:38:29.640Z,2.45
2022-08-25T20:40:56.188Z,2.42
2022-08-25T20:43:23.116Z,2.67
2022-08-25T20:45:49.829Z,2.20
2022-08-25T20:48:16.388Z,2.30
2022-08-25T20:50:42.873Z,2.38
2022-08-25T20:53:10.302Z,2.67
2022-08-25T20:55:43.710Z,2.70
2022-08-25T20:58:10.435Z,2.65
2022-08-25T21:00:37.005Z,2.58
2022-08-25T21:03:03.487Z,2.40
2022-08-25T21:05:30.029Z,2.60
2022-08-25T21:07:56.548Z,2.60
2022-08-25T21:10:23.407Z,2.58
2022-08-25T21:12:53.348Z,2.53
2022-08-25T21:15:20.317Z,2.65
2022-08-25T21:18:00.255Z,2.70
2022-08-25T21:20:26.959Z,2.55
2022-08-25T21:22:54.306Z,2.67
2022-08-25T21:25:21.600Z,2.90
2022-08-25T21:27:49.156Z,2.67
2022-08-25T21:30:16.715Z,2.58
2022-08-25T21:32:52.695Z,2.65
2022-08-25T21:37:46.628Z,3.08
2022-08-25T21:40:20.054Z,2.50
2022-08-25T21:42:46.587Z,2.72
2022-08-25T21:45:13.243Z,2.50
2022-08-25T21:47:42.434Z,2.60
2022-08-25T21:50:11.580Z,2.80
2022-08-25T21:52:38.418Z,2.70
2022-08-25T21:55:08.319Z,2.75
2022-08-25T21:57:42.991Z,2.88
2022-08-25T22:00:11.490Z,2.85
2022-08-25T22:02:38.596Z,2.83
2022-08-25T22:05:09.301Z,2.90
2022-08-25T22:07:41.591Z,2.85
2022-08-25T22:10:09.469Z,2.47
2022-08-25T22:12:43.743Z,3.35
2022-08-25T22:15:13.867Z,2.70
2022-08-25T22:17:40.580Z,2.92
2022-08-25T22:20:08.335Z,2.97
2022-08-25T22:22:36.003Z,2.92
2022-08-25T22:25:03.776Z,3.00
2022-08-25T22:27:32.812Z,2.85
2022-08-25T22:29:59.491Z,2.90
2022-08-25T22:32:26.392Z,2.70
2022-08-25T22:34:53.259Z,2.92
2022-08-25T22:37:19.824Z,2.83
2022-08-25T22:39:46.755Z,2.90
2022-08-25T22:42:13.821Z,3.15
2022-08-25T22:44:42.304Z,2.80
2022-08-25T22:47:10.492Z,3.28
2022-08-25T22:49:39.729Z,3.05
2022-08-25T22:52:07.419Z,2.95
2022-08-25T22:54:36.464Z,2.80
2022-08-25T22:57:06.747Z,2.95
2022-08-25T22:59:33.836Z,3.10
2022-08-25T23:02:00.514Z,3.28
2022-08-25T23:04:27.052Z,2.80
2022-08-25T23:06:53.581Z,3.28
2022-08-25T23:09:21.153Z,3.22
2022-08-25T23:11:47.945Z,3.10
2022-08-25T23:14:18.395Z,3.33
2022-08-25T23:16:44.961Z,3.30
2022-08-25T23:19:13.630Z,3.13
2022-08-25T23:22:03.434Z,3.42
2022-08-25T23:24:31.173Z,3.22
2022-08-25T23:27:00.778Z,2.83
2022-08-25T23:29:28.022Z,3.67
2022-08-25T23:31:55.455Z,3.30
2022-08-25T23:34:23.387Z,3.10
2022-08-25T23:36:50.348Z,3.30
2022-08-25T23:39:16.890Z,3.30
2022-08-25T23:41:43.427Z,3.72
2022-08-25T23:44:11.612Z,3.38
2022-08-25T23:46:44.340Z,3.40
2022-08-25T23:49:11.250Z,3.28
2022-08-25T23:51:38.077Z,3.63
2022-08-25T23:54:09.656Z,3.35
2022-08-25T23:56:44.710Z,3.40
2022-08-25T23:59:18.873Z,3.33
